Wasson, Illinois
Current Conditions -  °F | °C
As of 11:15 PM on Tuesday 25 Nov 2014 (Local Time) from KHSB Reporting Station
Clear Clear  
Wind Chill: 26°   Ceiling: Unl
Heat Index: 26°   Visibility: 10mi
Dew Point: 26°   Wind: 0mph
Humidity: 99%   Direction: NA
Pressure: 30.2"   Gusts: NA
Location:  37.8101°N, 88.4411°W
Report Text: KHSB 260515Z AUTO 00000KT 10SM CLR M03/M03 A3020 RMK AO2 T10321034
Loading
Personal Weather Stations






























Interactive Weather Map New forecast layout! Learn more

10-Day Weather Forecast

Advertisements
Track Severe Weather on mobile